Friday, May 6, 2016, 2:40 PM EDT

KW99, Petersburg, Grant County Airport

Location: Petersburg, WV, United States Lat: 38.983
Local Time: 2:40 PM EDT (18:40 GMT) Lon: -79.133
Time Zone: US/Eastern Elev: 961 ft

Show me the last for .
Show Decoded

2016-05-06 14:15 METAR KW99 061815Z AUTO 00000KT 10SM -RA OVC060 16/07 A2973 RMK AO2 T01550068 =
2016-05-06 13:55 METAR KW99 061755Z AUTO 32006KT 10SM OVC060 16/07 A2972 RMK AO2 60001 T01560067
                 10156 20110 =
2016-05-06 13:35 METAR KW99 061735Z AUTO 32008G16KT 10SM SCT044 OVC050 16/07 A2973 RMK AO2
                 T01550068 =
2016-05-06 13:15 METAR KW99 061715Z AUTO 28008KT 250V360 10SM -RA SCT044 OVC055 16/08 A2973 RMK
                 AO2 T01550077 =
2016-05-06 12:55 METAR KW99 061655Z AUTO 32006G14KT 10SM -DZ SCT045 OVC055 15/07 A2974 RMK AO2
                 T01520072 =
2016-05-06 12:35 METAR KW99 061635Z AUTO 33004G14KT 10SM OVC055 15/08 A2974 RMK AO2 T01510080 =
2016-05-06 12:15 METAR KW99 061615Z AUTO 33005KT 10SM SCT043 OVC049 15/08 A2976 RMK AO2 T01500080
                 =
2016-05-06 11:55 METAR KW99 061555Z AUTO 31008KT 10SM BKN038 OVC049 15/08 A2976 RMK AO2 P0001
                 T01490082 =
2016-05-06 11:35 METAR KW99 061535Z AUTO 32007KT 10SM OVC036 15/08 A2976 RMK AO2 P0001 T01460082
                 =
2016-05-06 11:15 METAR KW99 061515Z AUTO 32006KT 10SM OVC034 14/08 A2977 RMK AO2 P0001 T01410081
                 =
2016-05-06 10:55 METAR KW99 061455Z AUTO 00000KT 10SM OVC034 14/09 A2977 RMK AO2 T01400085 =
2016-05-06 10:35 METAR KW99 061435Z AUTO 00000KT 10SM SCT036 SCT060 OVC075 14/09 A2977 RMK AO2
                 T01380088 =
2016-05-06 10:15 METAR KW99 061415Z AUTO 00000KT 10SM SCT038 SCT055 OVC075 13/09 A2977 RMK AO2
                 T01330091 =
2016-05-06 09:55 METAR KW99 061355Z AUTO 00000KT 10SM RA SCT037 BKN055 OVC070 13/10 A2977 RMK AO2
                 T01270098 =
2016-05-06 09:35 METAR KW99 061335Z AUTO 00000KT 10SM SCT035 SCT050 OVC065 13/10 A2977 RMK AO2
                 T01250096 =
2016-05-06 09:15 METAR KW99 061315Z AUTO 00000KT 10SM SCT034 BKN065 OVC070 12/10 A2977 RMK AO2
                 T01210097 =
2016-05-06 08:55 METAR KW99 061255Z AUTO 00000KT 10SM BKN034 BKN045 OVC060 12/10 A2977 RMK AO2
                 T01170099 =
2016-05-06 08:35 METAR KW99 061235Z AUTO 00000KT 10SM BKN034 BKN046 OVC050 12/10 A2977 RMK AO2
                 T01150101 =
2016-05-06 08:15 METAR KW99 061215Z AUTO 00000KT 10SM BKN034 BKN046 OVC050 11/10 A2977 RMK AO2
                 T01130100 =
2016-05-06 07:55 METAR KW99 061155Z AUTO 00000KT 10SM OVC034 11/10 A2976 RMK AO2 60001 70022
                 T01100101 10116 20106 =
2016-05-06 07:35 METAR KW99 061135Z AUTO 00000KT 10SM BKN034 BKN041 OVC048 11/10 A2976 RMK AO2
                 T01080100 =
2016-05-06 07:15 METAR KW99 061115Z AUTO 00000KT 10SM RA SCT048 OVC060 11/10 A2976 RMK AO2
                 T01070101 =
2016-05-06 06:55 METAR KW99 061055Z AUTO 00000KT 10SM OVC060 11/10 A2975 RMK AO2 P0001 T01060100
                 =
2016-05-06 06:35 METAR KW99 061035Z AUTO 00000KT 10SM RA SCT048 OVC060 11/10 A2974 RMK AO2
                 T01070098 =
2016-05-06 06:15 METAR KW99 061015Z AUTO 00000KT 10SM DZ SCT050 OVC055 11/10 A2974 RMK AO2
                 T01090096 =
2016-05-06 05:55 METAR KW99 060955Z AUTO 00000KT 10SM DZ SCT043 SCT050 OVC055 11/10 A2974 RMK AO2
                 T01080096 =
2016-05-06 05:35 METAR KW99 060935Z AUTO 00000KT 10SM -DZ SCT043 OVC050 11/10 A2973 RMK AO2
                 T01080098 =
2016-05-06 05:15 METAR KW99 060915Z AUTO 00000KT 10SM SCT043 OVC050 11/10 A2973 RMK AO2 T01090097
                 =
2016-05-06 04:55 METAR KW99 060855Z AUTO 00000KT 10SM SCT029 OVC041 11/10 A2973 RMK AO2 T01080096
                 =
2016-05-06 04:35 METAR KW99 060835Z AUTO 00000KT 10SM SCT029 OVC043 11/10 A2973 RMK AO2 T01080098
                 =
2016-05-06 04:15 METAR KW99 060815Z AUTO 00000KT 10SM OVC041 11/10 A2973 RMK AO2 T01070097 =
2016-05-06 03:55 METAR KW99 060755Z AUTO 00000KT 10SM BKN036 OVC045 11/10 A2973 RMK AO2 T01080095
                 =
2016-05-06 03:35 METAR KW99 060735Z AUTO 00000KT 7SM SCT033 OVC039 11/10 A2973 RMK AO2 T01100095
                 =
2016-05-06 03:15 METAR KW99 060715Z AUTO 00000KT 7SM SCT025 BKN036 OVC046 11/10 A2973 RMK AO2
                 T01120095 =
2016-05-06 02:55 METAR KW99 060655Z AUTO 00000KT 7SM DZ SCT023 OVC034 11/10 A2973 RMK AO2
                 T01140101 =
2016-05-06 02:35 METAR KW99 060635Z AUTO 00000KT 10SM OVC036 12/10 A2972 RMK AO2 T01150102 =
2016-05-06 02:15 METAR KW99 060615Z AUTO 00000KT 10SM BKN038 OVC055 12/10 A2972 RMK AO2 T01160102
                 =
2016-05-06 01:55 METAR KW99 060555Z AUTO 00000KT 10SM SCT038 OVC049 12/11 A2973 RMK AO2 60004
                 T01160107 10145 20115 401550108 =
2016-05-06 01:35 METAR KW99 060535Z AUTO 00000KT 10SM SCT028 SCT042 OVC049 12/11 A2973 RMK AO2
                 T01150108 =
2016-05-06 01:15 METAR KW99 060515Z AUTO 00000KT 10SM -RA SCT029 BKN035 OVC049 12/11 A2973 RMK
                 AO2 T01150110 =
2016-05-06 00:55 METAR KW99 060455Z AUTO 00000KT 10SM BKN034 BKN042 OVC060 12/11 A2973 RMK AO2
                 P0001 T01150110 =
2016-05-06 00:35 METAR KW99 060435Z AUTO 00000KT 10SM SCT029 SCT040 OVC060 12/11 A2972 RMK AO2
                 P0001 T01150110 =
2016-05-06 00:15 METAR KW99 060415Z AUTO 00000KT 10SM -RA SCT029 BKN035 OVC060 12/11 A2972 RMK
                 AO2 P0001 T01160110 =
2016-05-05 23:55 METAR KW99 060355Z AUTO 00000KT 7SM -RA SCT022 BKN034 OVC041 12/11 A2972 RMK AO2
                 P0003 T01160106 =
2016-05-05 23:35 METAR KW99 060335Z AUTO 00000KT 10SM RA SCT029 SCT034 OVC041 12/11 A2972 RMK AO2
                 P0001 T01160109 =
2016-05-05 23:15 METAR KW99 060315Z AUTO 00000KT 10SM OVC033 12/11 A2972 RMK AO2 T01170105 =
2016-05-05 22:55 METAR KW99 060255Z AUTO 00000KT 10SM -RA OVC032 12/11 A2973 RMK AO2 T01200105 =
2016-05-05 22:35 METAR KW99 060235Z AUTO 32003KT 10SM BKN032 OVC039 12/11 A2972 RMK AO2 T01200105
                 =
2016-05-05 22:15 METAR KW99 060215Z AUTO 33004KT 10SM -RA OVC032 13/11 A2972 RMK AO2 T01270106 =
2016-05-05 21:55 METAR KW99 060155Z AUTO 00000KT 10SM OVC034 13/11 A2971 RMK AO2 T01260110 =
2016-05-05 21:35 METAR KW99 060135Z AUTO 00000KT 10SM SCT034 BKN045 OVC050 13/11 A2970 RMK AO2
                 T01250112 =
2016-05-05 21:15 METAR KW99 060115Z AUTO 00000KT 10SM SCT034 BKN048 OVC050 13/11 A2970 RMK AO2
                 T01260109 =
2016-05-05 20:55 METAR KW99 060055Z AUTO 00000KT 10SM SCT046 OVC050 13/11 A2969 RMK AO2 T01260111
                 =
2016-05-05 20:35 METAR KW99 060035Z AUTO 00000KT 10SM SCT042 OVC050 13/11 A2969 RMK AO2 T01300108
                 =
2016-05-05 20:15 METAR KW99 060015Z AUTO 00000KT 10SM SCT046 OVC070 13/10 A2968 RMK AO2 T01330102
                 =
2016-05-05 19:55 METAR KW99 052355Z AUTO 00000KT 10SM SCT048 BKN060 OVC070 15/09 A2968 RMK AO2
                 60001 T01450087 10155 20117 =
2016-05-05 19:35 METAR KW99 052335Z AUTO 00000KT 10SM SCT041 BKN048 OVC060 15/09 A2967 RMK AO2
                 T01460090 =
2016-05-05 19:15 METAR KW99 052315Z AUTO 00000KT 10SM SCT033 BKN038 OVC060 15/09 A2966 RMK AO2
                 T01460089 =
2016-05-05 18:55 METAR KW99 052255Z AUTO 00000KT 10SM BKN033 OVC043 15/09 A2966 RMK AO2 T01480090
                 =
2016-05-05 18:35 METAR KW99 052235Z AUTO 00000KT 10SM SCT035 BKN041 BKN055 15/09 A2965 RMK AO2
                 LTG DSNT W T01530092 =
2016-05-05 18:15 METAR KW99 052215Z AUTO 00000KT 10SM SCT028 SCT034 BKN055 15/09 A2965 RMK AO2
                 LTG DSNT W T01490094 =
2016-05-05 17:55 METAR KW99 052155Z AUTO 00000KT 10SM VCTS BKN030 BKN038 OVC055 15/10 A2965 RMK
                 AO2 LTG DSNT W AND NW T01490098 =
2016-05-05 17:35 METAR KW99 052135Z AUTO 13004KT 10SM VCTS SCT029 BKN037 BKN048 14/10 A2965 RMK
                 AO2 LTG DSNT W T01440096 =
2016-05-05 17:15 METAR KW99 052115Z AUTO 11005KT 10SM VCTS SCT031 SCT040 BKN050 14/10 A2966 RMK
                 AO2 LTG DSNT W THRU N T01420097 =
2016-05-05 16:55 METAR KW99 052055Z AUTO 12005KT 10SM SCT023 BKN033 OVC044 14/10 A2965 RMK AO2
                 LTG DSNT NW 60001 T01390097 =
2016-05-05 16:35 METAR KW99 052035Z AUTO 00000KT 10SM SCT016 OVC023 14/10 A2966 RMK AO2 LTG DSNT
                 NW T01400097 =
2016-05-05 16:15 METAR KW99 052015Z AUTO 00000KT 10SM SCT018 BKN025 OVC050 14/10 A2966 RMK AO2
                 T01360098 =
2016-05-05 15:55 METAR KW99 051955Z AUTO 00000KT 10SM SCT027 BKN033 OVC050 13/10 A2966 RMK AO2
                 T01340101 =
2016-05-05 15:35 METAR KW99 051935Z AUTO 00000KT 10SM -DZ OVC029 13/10 A2967 RMK AO2 LTG DSNT NW
                 T01330099 =
2016-05-05 15:15 METAR KW99 051915Z AUTO 00000KT 10SM OVC027 13/10 A2967 RMK AO2 LTG DSNT N
                 T01320102 =
2016-05-05 14:55 METAR KW99 051855Z AUTO 00000KT 10SM -DZ SCT022 BKN029 OVC037 13/10 A2967 RMK
                 AO2 LTG DSNT NW P0001 T01270100 =

Support USWX by starting your Amazon purchase here.